Pagrindinis puslapis
METAR-TAF:

METAR-TAF

Oro uostai :

Damaskas, Sirija

platuma: 33-25N, ilguma: 036-31E, Aukštis: 608 m

Dabartinis oras

Ataskaita buvo paskelbta 21 minutes, ne 17:00 UTC
Vėjas 2 kt iš Šiaurės/Šiaurės Rytų
Temperatūra 8°C
Drėgmė 71%
Slėgis 1018 hPa
Matomumas 10 km arba daugiau
Mažai debesys ne aukštis 3000 ft

METAR: OSDI 071700Z 02002KT 9999 FEW030 08/03 Q1018

Laikas: 19:21 (17:21 UTC)

Prognozė

Ataskaita buvo paskelbta 12 valandos ir 21 minutes, ne 05:00 UTC
Prognozė galioja nuo 07 metu 06 UTC su 08 metu 12 UTC
Vėjas 3 kt nuo kintamojo kryptimis
Matomumas: 3000 m
rūkana
Laikinai
nuo 07 metu 10 UTC su 07 metu 20 UTC
Vėjas 10 kt iš Pietvakarių
Matomumas 10 km arba daugiau
Mažai debesys ne aukštis 3000 ft
Išsisklaidę debesys ne aukštis 10000 ft

TAF: OSDI 070500Z 0706/0812 VRB03KT 3000 BR TEMPO 0710/0720 22010KT 9999 FEW030 SCT100

Orai ataskaitas ir orų prognozės (METAR, TAF).

turimą stotys yra geltonos ir raudonos taškus žemėlapyje.

Perkelti pele per norėdami pamatyti stoties vardą.

Tada spustelėkite, norėdami matyti oro stebėjimo ir prognozės.

Norėdami pakeisti žemėlapį: spustelėkite ant žalios mygtukų su juodo kryžiaus žemyn,; žalią mygtuką su brūkšneliu, jei norite nutolinti; arba žalių rodyklių gretimoms žemėlapius.


METAR-TAF: